РПИ Баку

Район полетной информации Баку (UBBA) обеспечивает организацию воздушного движения в воздушном пространстве Азербайджана в сети VATSIM.

В состав РПИ входит пять международных аэропортов, четыре аэропорта совместного базирования, и четыре военных аэропорта.

Первого апреля 1996 года по решению дирекции Государственного концерна ГА под эгидой ICAO и Европейского банка развития создано предприятие аэронавигационного обслуживания  «Азераэронавигация» (AZANS) получившее статус юридической самостоятельности первым из структурных подразделений Государственного Концерна «Азербайджан Хава Йоллары». Абсолютной  задачей нового предприятия стало обеспечение безопасности полетов в воздушном пространстве Азербайджанской Республики с возложением функции обслуживания и координации воздушного движения.

С целью готовности к обслуживанию постоянно растущего потока воздушного движения на должном уровне и в соответствии с международными требованиями и стандартами был разработан широкоформатный проект нового здания Управления Воздушного Движения «Азераэронавигация» и Главного Центра ЕС УВД, и в 2012 году начато сооружение комплекса с Вышкой высотой 65 метров. В новом Центре будут применены современные технологии и достижения технического развития с прогнозом на будущее, такие как автоматизированные системы УВД производителя из Испании «ИНДРА», OLDİ, Searidge camera Surveillance Technologies AMHS,  ADS-B, A-SMGCS и т.д.

Baku Control (UBBA_CTR) sectors

United 125.500

Руководство

Grigori Badalov*

Куратор
Инструкторы РПИ
Grigori Badalov (Instructor)
Входит в состав
Кавказ

Диспетчеры РПИ

Диспетчер Рейтинг Допуски *
Chen Cheng Instructor UBBA_CTR
Dallon Pereira Supervisor UBBA_CTR
Deniz Isiklar Controller UBBA_CTR
Ismail Hassan Senior Student UBBA_CTR
Muhammad Abdullah Controller UBBA_CTR
Grigori Badalov Instructor UBBA_CTR
Ivan Chernov Senior Controller UBBA_CTR
Valeriy Polostyanoy Instructor UBBA_CTR
Veda Moola Senior Student UBBB_DEP , UBBB_APP 
Alikhan Aidarbek Student UBBB_TWR 
Andrey Zonov Student 2 UBBB_GND
Artem Tsendrovsky Senior Student UBBB_DEP, UBBB_APP
Emanuel Teymoorian Student 2 UBBB_DEP*, UBBB_APP*
Joshua Ong Student 2 UBBB_TWR
Suwan Kim Student 2 UBBB_APP*, UBBB_DEP*

Аэропорты РПИ

ICAO Город Название Погода
UBBB Баку Баку UBBB 100830Z 09016KT 9999 -RA SCT013 OVC024 09/08 Q1026 NOSIG
UBBQ Габала Габала UBBQ 100800Z 00000KT 9999 BKN021 05/01 Q1026 NOSIG RMK MT OBSC
UBBG Гянджа Гянджа UBBG 100830Z VRB02KT 9999 OVC020 05/M01 Q1026 NOSIG
UBBN Нахичевань Нахичевань UBBN 100830Z 14004KT 8000 OVC026 05/M00 Q1025 NOSIG RMK MT OBSC QFE693
UBBL Ленкорань Ленкорань UBBL 100800Z 33006KT 9000 BKN031 08/03 Q1028 NOSIG RMK MT OP